Time;durP1;ratioP1;P1;durP2;ratioP2;P2;SDS_P1;SDS_P2;PMS_P1;PMS_P2;Temp;Humidity;BMP_temperature;BMP_pressure;BME280_temperature;BME280_humidity;BME280_pressure;Samples;Min_cycle;Max_cycle;Signal;HPM_P1;HPM_P2
2022/03/11 00:00:56;;;;;;;;;;;;;;;27.29;18.24;101676.88;4998978;28;1247;-43
2022/03/11 00:03:21;;;;;;;;;;;;;;;26.93;18.89;101672.41;4998716;28;1971;-41
2022/03/11 00:05:47;;;;;;;;;;;;;;;26.99;18.49;101669.09;4998364;28;935;-47
2022/03/11 00:08:12;;;;;;;;;;;;;;;26.95;18.59;101667.72;4998260;28;794;-44
2022/03/11 00:10:38;;;;;;;;;;;;;;;26.81;18.86;101661.88;4997349;28;851;-46
2022/03/11 00:13:03;;;;;;;;;;;;;;;26.71;18.79;101662.00;4998100;28;754;-46
2022/03/11 00:15:28;;;;;;;;;;;;;;;26.67;19.14;101662.47;5006777;28;974;-43
2022/03/11 00:17:54;;;;;;;;;;;;;;;26.63;19.09;101664.63;5007985;28;778;-42
2022/03/11 00:20:20;;;;;;;;;;;;;;;26.57;19.21;101663.44;4998300;28;758;-42
2022/03/11 00:22:49;;;;;;;;;;;;;;;26.48;19.50;101658.97;4998077;28;1898;-42
2022/03/11 00:25:15;;;;;;;;;;;;;;;26.63;19.15;101665.50;4997904;28;816;-42
2022/03/11 00:27:40;;;;;;;;;;;;;;;26.57;19.11;101657.19;5004395;28;884;-46
2022/03/11 00:30:06;;;;;;;;;;;;;;;26.22;19.82;101659.72;4998398;28;757;-40
2022/03/11 00:32:31;;;;;;;;;;;;;;;27.21;18.80;101661.50;5005800;28;819;-43
2022/03/11 00:34:56;;;;;;;;;;;;;;;27.41;18.46;101656.66;4997879;28;1042;-43
2022/03/11 00:37:21;;;;;;;;;;;;;;;26.13;20.15;101656.97;4997727;28;897;-44
2022/03/11 00:39:47;;;;;;;;;;;;;;;26.06;20.45;101649.66;5008326;28;853;-43
2022/03/11 00:42:12;;;;;;;;;;;;;;;26.69;19.81;101647.84;4996839;28;786;-42
2022/03/11 00:44:38;;;;;;;;;;;;;;;26.96;19.26;101647.81;4997616;28;1910;-44
2022/03/11 00:47:04;;;;;;;;;;;;;;;27.00;19.28;101655.44;5003986;28;995;-43
2022/03/11 00:49:29;;;;;;;;;;;;;;;27.01;19.48;101640.06;4997460;28;860;-43
2022/03/11 00:51:54;;;;;;;;;;;;;;;27.36;18.78;101640.13;5003145;28;879;-45
2022/03/11 00:54:20;;;;;;;;;;;;;;;27.31;18.63;101637.06;4998225;28;876;-49
2022/03/11 00:56:45;;;;;;;;;;;;;;;27.28;18.88;101643.59;4997851;28;746;-44
2022/03/11 00:59:10;;;;;;;;;;;;;;;28.02;18.33;101647.56;4997663;28;948;-45
2022/03/11 01:01:35;;;;;;;;;;;;;;;27.95;18.11;101641.97;4999386;28;750;-41
2022/03/11 01:04:01;;;;;;;;;;;;;;;28.21;18.09;101642.84;4998710;28;1980;-42
2022/03/11 01:06:26;;;;;;;;;;;;;;;27.61;18.47;101642.91;5006461;28;799;-45
2022/03/11 01:08:51;;;;;;;;;;;;;;;27.10;19.18;101647.25;4997460;28;1088;-43
2022/03/11 01:11:17;;;;;;;;;;;;;;;26.83;19.41;101643.69;4997217;28;793;-40
2022/03/11 01:13:42;;;;;;;;;;;;;;;26.81;18.93;101637.59;4997105;28;806;-46
2022/03/11 01:16:07;;;;;;;;;;;;;;;26.79;18.97;101636.94;5001349;28;875;-42
2022/03/11 01:18:33;;;;;;;;;;;;;;;26.73;19.16;101624.06;5006263;28;1153;-41
2022/03/11 01:20:59;;;;;;;;;;;;;;;26.67;19.35;101638.19;4996858;28;866;-43
2022/03/11 01:23:24;;;;;;;;;;;;;;;26.70;19.57;101638.72;4997021;28;1906;-46
2022/03/11 01:25:49;;;;;;;;;;;;;;;26.60;19.56;101630.72;4997258;28;829;-46
2022/03/11 01:28:15;;;;;;;;;;;;;;;26.53;19.71;101630.50;4997707;28;774;-45
2022/03/11 01:30:40;;;;;;;;;;;;;;;26.23;20.44;101635.31;5006938;28;1017;-47
2022/03/11 01:33:06;;;;;;;;;;;;;;;26.98;19.48;101641.25;5002610;28;1062;-43
2022/03/11 01:35:31;;;;;;;;;;;;;;;27.54;19.02;101645.41;4997148;28;873;-43
2022/03/11 01:37:57;;;;;;;;;;;;;;;27.05;19.33;101632.53;4997129;28;814;-43
2022/03/11 01:40:22;;;;;;;;;;;;;;;26.09;20.60;101642.06;4996771;28;858;-46
2022/03/11 01:42:47;;;;;;;;;;;;;;;26.33;20.38;101654.13;5003073;28;824;-43
2022/03/11 01:45:13;;;;;;;;;;;;;;;26.61;20.32;101650.47;4997341;28;1973;-43
2022/03/11 01:47:38;;;;;;;;;;;;;;;26.86;19.74;101653.34;5010505;28;809;-40
2022/03/11 01:50:03;;;;;;;;;;;;;;;27.02;19.89;101649.91;4996340;28;897;-40
2022/03/11 01:52:29;;;;;;;;;;;;;;;27.24;19.29;101653.88;4997954;28;1088;-43
2022/03/11 01:54:54;;;;;;;;;;;;;;;27.23;19.08;101660.31;4999579;28;892;-41
2022/03/11 01:57:19;;;;;;;;;;;;;;;27.47;18.87;101658.72;5017181;28;836;-43
2022/03/11 01:59:45;;;;;;;;;;;;;;;27.93;18.60;101652.09;5018771;28;739;-44
2022/03/11 02:02:10;;;;;;;;;;;;;;;27.92;18.55;101661.25;5003977;28;781;-42
2022/03/11 02:04:35;;;;;;;;;;;;;;;27.71;18.92;101656.31;5000723;28;1961;-40
2022/03/11 02:07:01;;;;;;;;;;;;;;;27.49;18.85;101659.38;5000938;28;839;-44
2022/03/11 02:09:27;;;;;;;;;;;;;;;27.26;19.36;101667.22;5007003;28;850;-42
2022/03/11 02:11:52;;;;;;;;;;;;;;;27.22;19.19;101658.63;4999117;28;857;-41
2022/03/11 02:14:17;;;;;;;;;;;;;;;27.06;19.34;101653.97;5000515;28;849;-42
2022/03/11 02:16:43;;;;;;;;;;;;;;;26.92;19.44;101650.00;5008444;28;942;-45
2022/03/11 02:19:08;;;;;;;;;;;;;;;27.00;19.76;101663.53;5000313;28;868;-41
2022/03/11 02:21:46;;;;;;;;;;;;;;;26.88;19.34;101659.41;5009644;28;883;-42
2022/03/11 02:24:12;;;;;;;;;;;;;;;26.67;20.19;101655.25;5000287;28;1899;-39
2022/03/11 02:26:38;;;;;;;;;;;;;;;26.70;19.82;101667.56;5000574;28;864;-39
2022/03/11 02:29:04;;;;;;;;;;;;;;;26.65;20.02;101663.50;5000376;28;837;-41
2022/03/11 02:31:29;;;;;;;;;;;;;;;26.69;19.81;101671.28;5008919;28;899;-41
2022/03/11 02:33:55;;;;;;;;;;;;;;;26.48;20.75;101667.91;5006792;28;1042;-42
2022/03/11 02:36:20;;;;;;;;;;;;;;;27.34;19.41;101669.97;5011768;28;896;-42
2022/03/11 02:38:45;;;;;;;;;;;;;;;27.44;19.50;101671.72;5005762;28;956;-40
2022/03/11 02:41:11;;;;;;;;;;;;;;;26.16;20.95;101664.75;5000165;28;992;-40
2022/03/11 02:43:36;;;;;;;;;;;;;;;26.45;20.70;101665.53;4998976;28;1910;-43
2022/03/11 02:46:02;;;;;;;;;;;;;;;26.80;20.20;101664.75;5005805;28;928;-47
2022/03/11 02:48:27;;;;;;;;;;;;;;;26.88;20.07;101668.38;5006898;28;742;-42
2022/03/11 02:50:52;;;;;;;;;;;;;;;27.00;20.23;101668.94;5000295;28;734;-39
2022/03/11 02:53:17;;;;;;;;;;;;;;;27.11;19.87;101669.72;4999863;28;877;-43
2022/03/11 02:55:43;;;;;;;;;;;;;;;27.32;19.54;101676.56;4999854;28;1051;-42
2022/03/11 02:58:08;;;;;;;;;;;;;;;27.29;19.51;101685.00;4999662;28;900;-43
2022/03/11 03:00:33;;;;;;;;;;;;;;;27.67;19.34;101684.63;5011503;28;793;-39
2022/03/11 03:02:59;;;;;;;;;;;;;;;28.01;18.69;101682.88;5015978;28;1890;-41
2022/03/11 03:05:24;;;;;;;;;;;;;;;27.98;18.79;101689.47;5017644;28;712;-43
2022/03/11 03:07:50;;;;;;;;;;;;;;;27.60;19.01;101688.00;5018017;28;868;-44
2022/03/11 03:10:15;;;;;;;;;;;;;;;27.41;19.15;101689.06;5018103;28;802;-45
2022/03/11 03:12:40;;;;;;;;;;;;;;;27.39;19.32;101696.53;5011970;28;902;-42
2022/03/11 03:15:06;;;;;;;;;;;;;;;27.43;19.09;101699.72;4999466;28;758;-39
2022/03/11 03:17:31;;;;;;;;;;;;;;;27.28;19.48;101704.91;5014071;28;1031;-40
2022/03/11 03:19:57;;;;;;;;;;;;;;;27.09;19.29;101701.44;5018230;28;853;-46
2022/03/11 03:22:22;;;;;;;;;;;;;;;26.96;19.44;101715.31;5016511;28;1195;-45
2022/03/11 03:24:47;;;;;;;;;;;;;;;26.90;19.81;101708.69;5017626;28;1902;-40
2022/03/11 03:27:13;;;;;;;;;;;;;;;26.75;19.87;101717.38;5004363;28;817;-44
2022/03/11 03:29:38;;;;;;;;;;;;;;;26.74;20.18;101710.25;4999042;28;809;-41
2022/03/11 03:32:03;;;;;;;;;;;;;;;26.57;20.31;101716.53;4999630;28;1047;-43
2022/03/11 03:34:30;;;;;;;;;;;;;;;26.53;20.62;101718.69;4997779;28;1267;-41
2022/03/11 03:37:01;;;;;;;;;;;;;;;27.32;19.47;101719.78;4998772;28;774;-41
2022/03/11 03:39:27;;;;;;;;;;;;;;;27.47;19.24;101720.88;5011498;28;861;-42
2022/03/11 03:41:52;;;;;;;;;;;;;;;26.49;20.62;101723.56;4999009;28;996;-45
2022/03/11 03:44:18;;;;;;;;;;;;;;;26.67;20.52;101711.91;4998111;28;1967;-39
2022/03/11 03:46:43;;;;;;;;;;;;;;;25.81;20.60;101712.22;5006029;28;900;-40
2022/03/11 03:49:08;;;;;;;;;;;;;;;25.87;19.26;101708.94;4999191;28;844;-42
2022/03/11 03:51:34;;;;;;;;;;;;;;;25.77;18.50;101710.84;5004823;28;849;-46
2022/03/11 03:53:59;;;;;;;;;;;;;;;25.69;18.57;101703.50;4999001;28;826;-43
2022/03/11 03:56:25;;;;;;;;;;;;;;;26.33;18.56;101707.22;4998499;28;825;-44
2022/03/11 03:58:50;;;;;;;;;;;;;;;26.10;18.43;101707.66;4998974;28;934;-45
2022/03/11 04:01:15;;;;;;;;;;;;;;;25.74;18.80;101694.97;5004768;28;883;-44
2022/03/11 04:03:41;;;;;;;;;;;;;;;25.63;18.45;101696.88;5006529;28;1894;-44
2022/03/11 04:06:06;;;;;;;;;;;;;;;25.59;18.28;101697.28;4998189;28;1608;-46
2022/03/11 04:08:31;;;;;;;;;;;;;;;25.40;18.68;101699.06;4998221;28;814;-45
2022/03/11 04:10:57;;;;;;;;;;;;;;;25.39;18.71;101705.47;5001163;28;1140;-42
2022/03/11 04:13:22;;;;;;;;;;;;;;;25.24;18.89;101702.41;5014514;28;1104;-43
2022/03/11 04:15:47;;;;;;;;;;;;;;;25.11;18.59;101697.34;5012613;28;876;-42
2022/03/11 04:18:12;;;;;;;;;;;;;;;25.09;18.70;101702.00;5000803;28;856;-42
2022/03/11 04:20:38;;;;;;;;;;;;;;;24.93;18.82;101698.94;4998095;28;868;-43
2022/03/11 04:23:04;;;;;;;;;;;;;;;24.88;18.81;101694.94;4997873;28;1902;-42
2022/03/11 04:25:29;;;;;;;;;;;;;;;24.86;18.68;101694.25;4998187;28;841;-41
2022/03/11 04:27:54;;;;;;;;;;;;;;;24.83;18.66;101696.22;5000290;28;825;-46
2022/03/11 04:30:20;;;;;;;;;;;;;;;24.82;18.62;101699.06;5003930;28;845;-41
2022/03/11 04:32:45;;;;;;;;;;;;;;;24.56;18.90;101707.72;4998866;28;1112;-45
2022/03/11 04:35:10;;;;;;;;;;;;;;;24.54;19.08;101705.16;4997765;28;806;-40
2022/03/11 04:37:35;;;;;;;;;;;;;;;25.22;18.43;101712.47;4997779;28;938;-41
2022/03/11 04:40:01;;;;;;;;;;;;;;;25.87;18.04;101713.47;4997931;28;829;-39
2022/03/11 04:42:26;;;;;;;;;;;;;;;25.98;17.86;101720.50;5008698;28;813;-44
2022/03/11 04:44:51;;;;;;;;;;;;;;;24.42;19.48;101714.38;4998080;28;1967;-46
2022/03/11 04:47:17;;;;;;;;;;;;;;;23.77;20.14;101723.72;5006036;28;991;-45
2022/03/11 04:49:43;;;;;;;;;;;;;;;22.01;18.43;101722.19;4997959;28;746;-46
2022/03/11 04:52:08;;;;;;;;;;;;;;;21.39;17.79;101733.25;4997730;28;865;-48
2022/03/11 04:54:33;;;;;;;;;;;;;;;22.46;17.06;101730.22;5005333;28;853;-47
2022/03/11 04:56:58;;;;;;;;;;;;;;;22.68;16.10;101725.75;4998176;28;1261;-49
2022/03/11 04:59:24;;;;;;;;;;;;;;;23.09;17.16;101734.81;5005105;28;1379;-41
2022/03/11 05:01:50;;;;;;;;;;;;;;;23.70;18.19;101735.03;5001865;28;1481;-43
2022/03/11 05:04:15;;;;;;;;;;;;;;;23.63;18.25;101738.34;5003646;28;1957;-47
2022/03/11 05:06:40;;;;;;;;;;;;;;;24.31;17.94;101748.47;5008677;28;1414;-46
2022/03/11 05:09:06;;;;;;;;;;;;;;;24.83;17.77;101746.50;5001753;28;1410;-43
2022/03/11 05:11:31;;;;;;;;;;;;;;;24.77;17.62;101742.56;5003840;28;869;-44
2022/03/11 05:13:56;;;;;;;;;;;;;;;24.87;17.77;101737.16;5012813;28;1456;-43
2022/03/11 05:16:21;;;;;;;;;;;;;;;25.05;17.94;101739.16;5000903;28;1378;-47
2022/03/11 05:18:47;;;;;;;;;;;;;;;25.64;17.61;101740.84;5009860;28;1565;-44
2022/03/11 05:21:12;;;;;;;;;;;;;;;25.39;17.79;101730.53;5006002;28;1568;-46
2022/03/11 05:23:37;;;;;;;;;;;;;;;25.86;17.76;101734.19;5006824;28;1910;-43
2022/03/11 05:26:03;;;;;;;;;;;;;;;26.09;17.51;101747.25;4999479;28;1010;-43
2022/03/11 05:28:28;;;;;;;;;;;;;;;26.67;16.95;101751.53;4996661;28;785;-44
2022/03/11 05:30:53;;;;;;;;;;;;;;;26.39;17.51;101752.47;5005790;28;1117;-50
2022/03/11 05:33:18;;;;;;;;;;;;;;;26.97;17.10;101752.13;5009497;28;1229;-46
2022/03/11 05:35:44;;;;;;;;;;;;;;;26.80;16.99;101749.28;4996996;28;904;-49
2022/03/11 05:38:09;;;;;;;;;;;;;;;26.59;16.97;101746.94;4996855;28;841;-45
2022/03/11 05:40:34;;;;;;;;;;;;;;;26.33;17.19;101753.06;4996846;28;837;-43
2022/03/11 05:43:00;;;;;;;;;;;;;;;27.38;16.70;101749.72;4996900;28;1990;-46
2022/03/11 05:45:25;;;;;;;;;;;;;;;27.51;16.55;101753.81;5003286;28;774;-43
2022/03/11 05:47:50;;;;;;;;;;;;;;;27.09;16.77;101750.03;5012341;28;1010;-42
2022/03/11 05:50:17;;;;;;;;;;;;;;;26.48;16.99;101746.16;5014815;28;876;-48
2022/03/11 05:52:42;;;;;;;;;;;;;;;26.21;17.30;101752.44;5005276;28;1604;-42
2022/03/11 05:55:08;;;;;;;;;;;;;;;26.11;17.83;101747.94;5016170;28;749;-41
2022/03/11 05:57:34;;;;;;;;;;;;;;;26.06;18.00;101744.03;5015874;28;895;-45
2022/03/11 06:00:00;;;;;;;;;;;;;;;25.68;17.63;101756.56;5016459;28;805;-47
2022/03/11 06:02:25;;;;;;;;;;;;;;;26.35;18.07;101756.47;4997997;28;971;-40
2022/03/11 06:04:50;;;;;;;;;;;;;;;26.36;17.81;101761.72;5004886;28;1967;-46
2022/03/11 06:07:16;;;;;;;;;;;;;;;27.22;17.22;101753.16;5001663;28;1062;-43
2022/03/11 06:09:41;;;;;;;;;;;;;;;26.94;17.72;101747.88;4996757;28;837;-39
2022/03/11 06:12:07;;;;;;;;;;;;;;;26.42;18.24;101757.56;4996366;28;865;-49
2022/03/11 06:14:32;;;;;;;;;;;;;;;26.25;18.28;101762.78;4997020;28;1066;-50
2022/03/11 06:16:57;;;;;;;;;;;;;;;26.27;18.20;101755.38;4999015;28;984;-41
2022/03/11 06:19:23;;;;;;;;;;;;;;;25.99;18.03;101757.25;4996426;28;805;-48
2022/03/11 06:21:48;;;;;;;;;;;;;;;26.06;18.02;101758.31;4996296;28;901;-45
2022/03/11 06:24:13;;;;;;;;;;;;;;;26.24;17.97;101757.53;5011421;28;1890;-48
2022/03/11 06:26:40;;;;;;;;;;;;;;;26.46;17.52;101756.25;5015802;28;907;-45
2022/03/11 06:29:06;;;;;;;;;;;;;;;26.63;17.33;101762.66;5015931;28;793;-45
2022/03/11 06:31:31;;;;;;;;;;;;;;;26.74;17.61;101758.84;5005134;28;1038;-50
2022/03/11 06:33:58;;;;;;;;;;;;;;;26.92;17.41;101768.78;4995937;28;1074;-44
2022/03/11 06:36:23;;;;;;;;;;;;;;;26.89;17.22;101771.81;4997465;28;1572;-49
2022/03/11 06:38:48;;;;;;;;;;;;;;;27.04;17.32;101758.63;5005262;28;984;-49
2022/03/11 06:41:14;;;;;;;;;;;;;;;27.14;17.24;101763.91;5000021;28;838;-44
2022/03/11 06:43:39;;;;;;;;;;;;;;;27.74;16.20;101750.59;5000001;28;1906;-50
2022/03/11 06:46:04;;;;;;;;;;;;;;;27.46;16.03;101761.56;5001593;28;1190;-47
2022/03/11 06:48:29;;;;;;;;;;;;;;;28.42;15.24;101763.28;5005969;28;1217;-46
2022/03/11 06:50:55;;;;;;;;;;;;;;;28.79;14.90;101755.69;5009886;28;1159;-47
2022/03/11 06:53:25;;;;;;;;;;;;;;;28.67;14.61;101750.63;5016451;28;852;-45
2022/03/11 06:55:51;;;;;;;;;;;;;;;27.22;15.89;101755.88;5009598;28;1049;-48
2022/03/11 06:58:16;;;;;;;;;;;;;;;26.20;16.96;101756.97;5000980;28;1458;-49
2022/03/11 07:00:41;;;;;;;;;;;;;;;26.04;17.46;101746.88;5006828;28;1320;-42
2022/03/11 07:03:07;;;;;;;;;;;;;;;25.75;17.69;101759.50;5018816;28;1954;-40
2022/03/11 07:05:32;;;;;;;;;;;;;;;25.96;17.49;101750.31;5015812;28;1188;-45
2022/03/11 07:07:57;;;;;;;;;;;;;;;26.22;17.42;101754.13;5008441;28;1291;-47
2022/03/11 07:10:23;;;;;;;;;;;;;;;26.55;17.11;101745.53;5007133;28;1545;-49
2022/03/11 07:12:48;;;;;;;;;;;;;;;26.96;16.58;101761.22;5012114;28;1186;-45
2022/03/11 07:15:13;;;;;;;;;;;;;;;26.17;17.47;101754.59;5009067;28;1510;-38
2022/03/11 07:17:39;;;;;;;;;;;;;;;26.64;16.75;101758.09;5001158;28;1106;-43
2022/03/11 07:20:04;;;;;;;;;;;;;;;27.36;16.26;101754.41;5001802;28;1263;-48
2022/03/11 07:22:31;;;;;;;;;;;;;;;27.73;15.61;101756.97;5009478;28;1188;-45
2022/03/11 07:24:58;;;;;;;;;;;;;;;27.47;15.83;101757.84;4999209;28;1955;-46
2022/03/11 07:27:24;;;;;;;;;;;;;;;27.43;15.96;101746.50;4998454;28;893;-43
2022/03/11 07:29:50;;;;;;;;;;;;;;;27.92;15.36;101738.81;4998243;28;937;-43
2022/03/11 07:32:17;;;;;;;;;;;;;;;28.13;14.97;101734.81;4998350;28;1011;-43
2022/03/11 07:34:42;;;;;;;;;;;;;;;28.46;14.63;101751.94;5001849;28;1200;-44
2022/03/11 07:37:11;;;;;;;;;;;;;;;27.12;15.60;101745.19;5015155;28;1274;-45
2022/03/11 07:39:37;;;;;;;;;;;;;;;27.60;15.76;101747.44;5009333;28;933;-46
2022/03/11 07:42:02;;;;;;;;;;;;;;;27.87;15.31;101736.59;5013916;28;1061;-46
2022/03/11 07:44:28;;;;;;;;;;;;;;;27.77;15.12;101744.00;5017267;28;1969;-48
2022/03/11 07:46:53;;;;;;;;;;;;;;;26.81;15.90;101745.56;5004045;28;1014;-46
2022/03/11 07:49:19;;;;;;;;;;;;;;;27.85;15.31;101742.16;4998391;28;842;-45
2022/03/11 07:51:44;;;;;;;;;;;;;;;28.23;14.72;101735.47;4998089;28;849;-46
2022/03/11 07:54:09;;;;;;;;;;;;;;;28.28;14.52;101741.25;4998096;28;949;-47
2022/03/11 07:56:34;;;;;;;;;;;;;;;28.55;14.50;101727.59;4998427;28;806;-49
2022/03/11 07:59:00;;;;;;;;;;;;;;;28.58;14.69;101738.06;5012478;28;1203;-45
2022/03/11 08:01:25;;;;;;;;;;;;;;;28.17;14.85;101728.91;5008023;28;951;-43
2022/03/11 08:03:50;;;;;;;;;;;;;;;28.43;14.60;101737.91;4998483;28;1898;-46
2022/03/11 08:06:16;;;;;;;;;;;;;;;27.54;15.48;101733.75;5007127;28;1259;-44
2022/03/11 08:08:43;;;;;;;;;;;;;;;27.91;15.26;101726.31;5017531;28;798;-43
2022/03/11 08:11:08;;;;;;;;;;;;;;;28.47;14.71;101734.72;5017856;28;813;-46
2022/03/11 08:13:36;;;;;;;;;;;;;;;27.84;15.41;101726.13;5007236;28;1053;-47
2022/03/11 08:16:01;;;;;;;;;;;;;;;28.05;14.75;101727.50;5003857;28;1030;-46
2022/03/11 08:18:26;;;;;;;;;;;;;;;26.97;16.09;101720.56;4997665;28;1507;-48
2022/03/11 08:20:52;;;;;;;;;;;;;;;26.69;16.49;101714.44;4998117;28;796;-46
2022/03/11 08:23:17;;;;;;;;;;;;;;;28.17;15.00;101711.81;4997836;28;1894;-50
2022/03/11 08:25:42;;;;;;;;;;;;;;;28.36;14.84;101710.69;5006915;28;1549;-46
2022/03/11 08:28:10;;;;;;;;;;;;;;;27.72;15.16;101706.63;5014741;28;1010;-45
2022/03/11 08:30:39;;;;;;;;;;;;;;;26.96;15.69;101707.22;5001860;28;1217;-45
2022/03/11 08:33:04;;;;;;;;;;;;;;;26.72;16.14;101720.38;5008148;28;1571;-43
2022/03/11 08:35:30;;;;;;;;;;;;;;;27.33;15.70;101719.63;5008497;28;1234;-44
2022/03/11 08:37:55;;;;;;;;;;;;;;;27.59;15.36;101718.72;5007131;28;1235;-47
2022/03/11 08:40:24;;;;;;;;;;;;;;;27.80;15.42;101713.91;5005445;28;1242;-47
2022/03/11 08:42:52;;;;;;;;;;;;;;;28.21;15.09;101714.00;5008359;28;1412;-46
2022/03/11 08:45:21;;;;;;;;;;;;;;;28.28;14.74;101729.59;5007926;28;1971;-42
2022/03/11 08:47:46;;;;;;;;;;;;;;;27.70;15.32;101724.88;5007496;28;1037;-43
2022/03/11 08:50:11;;;;;;;;;;;;;;;28.37;14.99;101720.50;5006236;28;1247;-40
2022/03/11 08:52:37;;;;;;;;;;;;;;;28.33;15.52;101711.00;5005010;28;1243;-42
2022/03/11 08:55:02;;;;;;;;;;;;;;;28.26;15.37;101708.09;5007973;28;1195;-41
2022/03/11 08:57:27;;;;;;;;;;;;;;;27.87;15.07;101705.00;4996732;28;970;-46
2022/03/11 08:59:54;;;;;;;;;;;;;;;27.91;15.42;101693.84;5001942;28;1180;-43
2022/03/11 09:02:21;;;;;;;;;;;;;;;27.76;15.05;101710.69;4996254;28;975;-41
2022/03/11 09:04:47;;;;;;;;;;;;;;;27.56;15.46;101710.94;4996681;28;1882;-47
2022/03/11 09:07:12;;;;;;;;;;;;;;;27.31;15.34;101713.53;5002549;28;1569;-47
2022/03/11 09:09:38;;;;;;;;;;;;;;;27.04;15.50;101711.84;5011284;28;833;-46
2022/03/11 09:12:03;;;;;;;;;;;;;;;27.41;15.15;101701.75;5016601;28;766;-41
2022/03/11 09:14:29;;;;;;;;;;;;;;;27.47;15.31;101701.97;5016621;28;805;-42
2022/03/11 09:16:55;;;;;;;;;;;;;;;27.58;15.24;101716.16;5004507;28;947;-47
2022/03/11 09:19:20;;;;;;;;;;;;;;;28.07;14.57;101722.78;5008059;28;1176;-50
2022/03/11 09:21:45;;;;;;;;;;;;;;;28.28;14.17;101735.00;5015659;28;897;-48
2022/03/11 09:24:11;;;;;;;;;;;;;;;28.40;14.15;101735.53;4996453;28;1982;-44
2022/03/11 09:26:36;;;;;;;;;;;;;;;28.67;13.89;101734.38;5006952;28;845;-46
2022/03/11 09:29:02;;;;;;;;;;;;;;;26.24;16.28;101733.25;5016451;28;1122;-44
2022/03/11 09:31:27;;;;;;;;;;;;;;;26.07;16.31;101740.31;5006096;28;971;-46
2022/03/11 09:33:52;;;;;;;;;;;;;;;25.93;16.29;101734.44;5004341;28;1141;-47
2022/03/11 09:36:17;;;;;;;;;;;;;;;26.69;16.02;101747.69;5015784;28;1489;-46
2022/03/11 09:38:43;;;;;;;;;;;;;;;27.70;14.71;101751.91;5015593;28;860;-46
2022/03/11 09:41:09;;;;;;;;;;;;;;;27.50;14.80;101763.78;4997104;28;1089;-44
2022/03/11 09:43:35;;;;;;;;;;;;;;;28.43;14.20;101763.13;4995743;28;1906;-45
2022/03/11 09:46:00;;;;;;;;;;;;;;;26.80;15.31;101752.00;4996305;28;972;-47
2022/03/11 09:48:25;;;;;;;;;;;;;;;26.96;14.95;101758.53;4996744;28;1027;-45
2022/03/11 09:50:51;;;;;;;;;;;;;;;27.22;14.54;101757.72;4996544;28;773;-46
2022/03/11 09:53:16;;;;;;;;;;;;;;;27.74;14.26;101742.47;4996540;28;1479;-47
2022/03/11 09:55:42;;;;;;;;;;;;;;;27.55;14.17;101755.19;5001048;28;1228;-44
2022/03/11 09:58:08;;;;;;;;;;;;;;;27.27;14.09;101755.38;5003926;28;1254;-44
2022/03/11 10:00:33;;;;;;;;;;;;;;;28.13;13.72;101756.44;4998350;28;1215;-45
2022/03/11 10:02:58;;;;;;;;;;;;;;;28.31;13.26;101757.13;4995817;28;1231;-46
2022/03/11 10:05:24;;;;;;;;;;;;;;;28.32;13.06;101748.03;4996731;28;1972;-45
2022/03/11 10:08:03;;;;;;;;;;;;;;;27.90;13.48;101744.38;5004403;28;1033;-47
2022/03/11 10:10:28;;;;;;;;;;;;;;;25.48;15.55;101753.06;4996388;28;766;-43
2022/03/11 10:12:54;;;;;;;;;;;;;;;26.39;14.85;101749.78;5009455;28;987;-47
2022/03/11 10:15:26;;;;;;;;;;;;;;;25.89;15.31;101747.34;5002330;28;1357;-47
2022/03/11 10:17:51;;;;;;;;;;;;;;;25.34;15.61;101738.19;5002254;28;1010;-47
2022/03/11 10:20:17;;;;;;;;;;;;;;;26.92;13.98;101757.13;5014822;28;1485;-46
2022/03/11 10:22:42;;;;;;;;;;;;;;;25.68;15.40;101753.84;5017827;28;1549;-44
2022/03/11 10:25:09;;;;;;;;;;;;;;;25.47;15.66;101748.66;5014261;28;1957;-43
2022/03/11 10:27:53;;;;;;;;;;;;;;;25.79;15.26;101754.66;5018748;28;1355;-44
2022/03/11 10:30:19;;;;;;;;;;;;;;;25.72;15.30;101745.47;5017815;28;1457;-45
2022/03/11 10:32:54;;;;;;;;;;;;;;;25.91;15.18;101747.22;5018358;28;1279;-46
2022/03/11 10:35:19;;;;;;;;;;;;;;;26.94;14.30;101734.38;5016471;28;1319;-46
2022/03/11 10:38:00;;;;;;;;;;;;;;;26.65;14.47;101738.19;5017156;28;1157;-45
2022/03/11 10:40:27;;;;;;;;;;;;;;;25.72;15.72;101740.09;5018643;28;1514;-46
2022/03/11 10:43:08;;;;;;;;;;;;;;;25.88;15.71;101734.03;5018606;28;1524;-47
2022/03/11 10:45:57;;;;;;;;;;;;;;;25.87;15.96;101735.03;5017804;28;1326;-47
2022/03/11 10:48:41;;;;;;;;;;;;;;;26.69;15.56;101744.13;5010840;28;1979;-48
2022/03/11 10:51:10;;;;;;;;;;;;;;;26.43;15.50;101734.97;5011180;28;1216;-48
2022/03/11 10:53:39;;;;;;;;;;;;;;;26.32;15.87;101745.97;5016974;28;1164;-45
2022/03/11 10:56:05;;;;;;;;;;;;;;;26.98;15.25;101741.16;5019515;28;908;-47
2022/03/11 10:58:30;;;;;;;;;;;;;;;27.54;14.66;101725.63;5018927;28;808;-49
2022/03/11 11:00:56;;;;;;;;;;;;;;;27.34;14.86;101710.50;5014714;28;934;-47
2022/03/11 11:03:21;;;;;;;;;;;;;;;27.04;14.97;101734.31;4998732;28;1965;-48
2022/03/11 11:05:46;;;;;;;;;;;;;;;27.31;14.88;101731.59;4999330;28;813;-45
2022/03/11 11:08:12;;;;;;;;;;;;;;;26.58;15.36;101729.03;4998010;28;898;-46
2022/03/11 11:10:40;;;;;;;;;;;;;;;26.87;15.43;101733.31;5012307;28;1278;-46
2022/03/11 11:13:06;;;;;;;;;;;;;;;27.20;14.77;101730.88;5011064;28;965;-45
2022/03/11 11:15:32;;;;;;;;;;;;;;;26.58;15.18;101729.88;5010021;28;1231;-45
2022/03/11 11:17:57;;;;;;;;;;;;;;;26.76;14.92;101727.16;5007149;28;1216;-49
2022/03/11 11:20:23;;;;;;;;;;;;;;;26.64;15.20;101718.44;5011966;28;1278;-47
2022/03/11 11:22:49;;;;;;;;;;;;;;;26.65;15.23;101713.91;5001453;28;1533;-46
2022/03/11 11:25:15;;;;;;;;;;;;;;;26.47;15.96;101711.25;5001438;28;1985;-44
2022/03/11 11:27:41;;;;;;;;;;;;;;;26.37;15.90;101711.31;5014659;28;1165;-51
2022/03/11 11:30:06;;;;;;;;;;;;;;;26.30;15.23;101713.75;4998822;28;840;-48
2022/03/11 11:32:32;;;;;;;;;;;;;;;26.56;15.06;101713.00;4996577;28;1423;-45
2022/03/11 11:35:16;;;;;;;;;;;;;;;25.79;15.52;101714.25;4998016;28;959;-46
2022/03/11 11:37:41;;;;;;;;;;;;;;;25.07;16.60;101712.94;4998302;28;833;-48
2022/03/11 11:40:19;;;;;;;;;;;;;;;25.43;16.23;101696.06;4999049;28;750;-46
2022/03/11 11:43:03;;;;;;;;;;;;;;;26.41;15.16;101712.69;5010933;28;1207;-45
2022/03/11 11:45:58;;;;;;;;;;;;;;;26.61;15.18;101702.56;5010009;28;1965;-47
2022/03/11 11:48:32;;;;;;;;;;;;;;;26.71;14.83;101707.06;5008574;28;1513;-47
2022/03/11 11:50:58;;;;;;;;;;;;;;;25.48;16.28;101701.00;5017204;28;1359;-45
2022/03/11 11:53:32;;;;;;;;;;;;;;;25.97;15.82;101708.88;5013978;28;1504;-45
2022/03/11 11:55:58;;;;;;;;;;;;;;;25.95;15.82;101683.91;5008148;28;1258;-42
2022/03/11 11:58:23;;;;;;;;;;;;;;;26.47;14.89;101704.00;5005531;28;1227;-48
2022/03/11 12:00:53;;;;;;;;;;;;;;;26.14;15.26;101700.97;5002212;28;1232;-43
2022/03/11 12:03:19;;;;;;;;;;;;;;;26.23;15.53;101709.97;5015530;28;1882;-46
2022/03/11 12:05:45;;;;;;;;;;;;;;;26.33;15.97;101705.38;5015316;28;1299;-49
2022/03/11 12:08:31;;;;;;;;;;;;;;;25.48;16.43;101698.31;5007680;28;1409;-45
2022/03/11 12:10:56;;;;;;;;;;;;;;;25.66;16.27;101691.19;5003895;28;1185;-45
2022/03/11 12:13:32;;;;;;;;;;;;;;;25.88;16.18;101699.84;5002417;28;1528;-44
2022/03/11 12:15:57;;;;;;;;;;;;;;;25.88;16.17;101696.28;4997242;28;995;-44
2022/03/11 12:18:41;;;;;;;;;;;;;;;25.88;16.33;101688.22;5007131;28;1175;-44
2022/03/11 12:21:08;;;;;;;;;;;;;;;25.95;16.29;101707.31;5008276;28;805;-46
2022/03/11 12:23:36;;;;;;;;;;;;;;;25.95;16.40;101691.16;5009780;28;1955;-49
2022/03/11 12:26:09;;;;;;;;;;;;;;;25.81;16.66;101693.34;5008815;28;1187;-46
2022/03/11 12:28:35;;;;;;;;;;;;;;;26.17;16.42;101695.25;4997714;28;807;-46
2022/03/11 12:31:14;;;;;;;;;;;;;;;26.33;16.35;101699.13;5005858;28;1176;-42
2022/03/11 12:33:40;;;;;;;;;;;;;;;26.51;16.34;101702.66;5008066;28;1260;-47
2022/03/11 12:36:08;;;;;;;;;;;;;;;26.02;16.68;101697.63;5006169;28;1203;-49
2022/03/11 12:38:37;;;;;;;;;;;;;;;26.63;15.87;101697.03;5006907;28;1228;-47
2022/03/11 12:41:22;;;;;;;;;;;;;;;26.28;16.35;101702.25;5002762;28;1185;-44
2022/03/11 12:43:47;;;;;;;;;;;;;;;26.57;16.13;101703.91;5008683;28;1957;-47
2022/03/11 12:46:13;;;;;;;;;;;;;;;26.35;16.37;101707.91;5004844;28;1163;-45